sensor_id;sensor_type;location;lat;lon;timestamp;pressure;altitude;pressure_sealevel;temperature;humidity
60583;BME280;46415;47.536;19.066;2023-06-10T00:00:47;-18689.34;;;16.97;100.00
60583;BME280;46415;47.536;19.066;2023-06-10T00:03:50;-18689.22;;;16.97;100.00
60583;BME280;46415;47.536;19.066;2023-06-10T00:06:54;-18688.66;;;16.95;100.00
60583;BME280;46415;47.536;19.066;2023-06-10T00:09:57;-18688.53;;;16.94;100.00
60583;BME280;46415;47.536;19.066;2023-06-10T00:13:01;-18688.25;;;16.93;100.00
60583;BME280;46415;47.536;19.066;2023-06-10T00:16:05;-18687.44;;;16.90;100.00
60583;BME280;46415;47.536;19.066;2023-06-10T00:19:07;-18686.75;;;16.88;100.00
60583;BME280;46415;47.536;19.066;2023-06-10T00:22:10;-18685.66;;;16.84;100.00
60583;BME280;46415;47.536;19.066;2023-06-10T00:25:14;-18684.56;;;16.80;100.00
60583;BME280;46415;47.536;19.066;2023-06-10T00:28:17;-18684.44;;;16.79;100.00
60583;BME280;46415;47.536;19.066;2023-06-10T00:31:20;-18682.94;;;16.73;100.00
60583;BME280;46415;47.536;19.066;2023-06-10T00:34:23;-18681.03;;;16.66;100.00
60583;BME280;46415;47.536;19.066;2023-06-10T00:37:27;-18679.41;;;16.60;100.00
60583;BME280;46415;47.536;19.066;2023-06-10T00:40:35;-18677.22;;;16.52;100.00
60583;BME280;46415;47.536;19.066;2023-06-10T00:43:41;-18677.06;;;16.52;100.00
60583;BME280;46415;47.536;19.066;2023-06-10T00:46:44;-18676.41;;;16.49;100.00
60583;BME280;46415;47.536;19.066;2023-06-10T00:49:47;-18675.44;;;16.46;100.00
60583;BME280;46415;47.536;19.066;2023-06-10T00:52:51;-18672.84;;;16.36;100.00
60583;BME280;46415;47.536;19.066;2023-06-10T00:55:57;-18670.94;;;16.29;100.00
60583;BME280;46415;47.536;19.066;2023-06-10T00:59:00;-18670.94;;;16.29;100.00
60583;BME280;46415;47.536;19.066;2023-06-10T01:02:03;-18670.28;;;16.26;100.00
60583;BME280;46415;47.536;19.066;2023-06-10T01:05:07;-18671.63;;;16.31;100.00
60583;BME280;46415;47.536;19.066;2023-06-10T01:08:35;-18672.72;;;16.36;100.00
60583;BME280;46415;47.536;19.066;2023-06-10T01:11:47;-18673.66;;;16.39;100.00
60583;BME280;46415;47.536;19.066;2023-06-10T01:14:52;-18673.28;;;16.38;100.00
60583;BME280;46415;47.536;19.066;2023-06-10T01:18:03;-18671.91;;;16.32;100.00
60583;BME280;46415;47.536;19.066;2023-06-10T01:21:06;-18671.22;;;16.30;100.00
60583;BME280;46415;47.536;19.066;2023-06-10T01:24:10;-18669.88;;;16.25;100.00
60583;BME280;46415;47.536;19.066;2023-06-10T01:27:15;-18669.19;;;16.22;100.00
60583;BME280;46415;47.536;19.066;2023-06-10T01:30:27;-18670.13;;;16.26;100.00
60583;BME280;46415;47.536;19.066;2023-06-10T01:33:36;-18669.59;;;16.24;100.00
60583;BME280;46415;47.536;19.066;2023-06-10T01:36:40;-18669.19;;;16.22;100.00
60583;BME280;46415;47.536;19.066;2023-06-10T01:39:45;-18668.50;;;16.20;100.00
60583;BME280;46415;47.536;19.066;2023-06-10T01:42:49;-18667.00;;;16.14;100.00
60583;BME280;46415;47.536;19.066;2023-06-10T01:45:52;-18664.81;;;16.06;100.00
60583;BME280;46415;47.536;19.066;2023-06-10T01:48:55;-18664.13;;;16.04;100.00
60583;BME280;46415;47.536;19.066;2023-06-10T01:51:58;-18663.03;;;16.00;100.00
60583;BME280;46415;47.536;19.066;2023-06-10T01:55:01;-18663.03;;;16.00;100.00
60583;BME280;46415;47.536;19.066;2023-06-10T01:58:05;-18663.03;;;16.00;100.00
60583;BME280;46415;47.536;19.066;2023-06-10T02:01:09;-18662.91;;;15.99;100.00
60583;BME280;46415;47.536;19.066;2023-06-10T02:04:12;-18662.09;;;15.96;100.00
60583;BME280;46415;47.536;19.066;2023-06-10T02:07:14;-18661.41;;;15.93;100.00
60583;BME280;46415;47.536;19.066;2023-06-10T02:10:17;-18662.38;;;15.97;100.00
60583;BME280;46415;47.536;19.066;2023-06-10T02:13:20;-18662.22;;;15.97;100.00
60583;BME280;46415;47.536;19.066;2023-06-10T02:16:26;-18663.59;;;16.02;100.00
60583;BME280;46415;47.536;19.066;2023-06-10T02:19:30;-18662.91;;;15.99;100.00
60583;BME280;46415;47.536;19.066;2023-06-10T02:22:33;-18663.03;;;16.00;100.00
60583;BME280;46415;47.536;19.066;2023-06-10T02:25:36;-18663.03;;;16.00;100.00
60583;BME280;46415;47.536;19.066;2023-06-10T02:28:42;-18663.31;;;16.01;100.00
60583;BME280;46415;47.536;19.066;2023-06-10T02:31:45;-18663.59;;;16.02;100.00
60583;BME280;46415;47.536;19.066;2023-06-10T02:34:48;-18663.03;;;16.00;100.00
60583;BME280;46415;47.536;19.066;2023-06-10T02:37:51;-18664.53;;;16.05;100.00
60583;BME280;46415;47.536;19.066;2023-06-10T02:40:54;-18666.03;;;16.11;100.00
60583;BME280;46415;47.536;19.066;2023-06-10T02:43:57;-18666.59;;;16.13;100.00
60583;BME280;46415;47.536;19.066;2023-06-10T02:47:00;-18667.94;;;16.18;100.00
60583;BME280;46415;47.536;19.066;2023-06-10T02:50:03;-18668.22;;;16.19;100.00
60583;BME280;46415;47.536;19.066;2023-06-10T02:53:07;-18668.50;;;16.20;100.00
60583;BME280;46415;47.536;19.066;2023-06-10T02:56:13;-18668.09;;;16.18;100.00
60583;BME280;46415;47.536;19.066;2023-06-10T02:59:16;-18668.78;;;16.21;100.00
60583;BME280;46415;47.536;19.066;2023-06-10T03:02:19;-18671.34;;;16.30;100.00
60583;BME280;46415;47.536;19.066;2023-06-10T03:05:23;-18671.78;;;16.32;100.00
60583;BME280;46415;47.536;19.066;2023-06-10T03:08:27;-18673.41;;;16.38;100.00
60583;BME280;46415;47.536;19.066;2023-06-10T03:11:30;-18675.59;;;16.46;100.00
60583;BME280;46415;47.536;19.066;2023-06-10T03:14:33;-18676.94;;;16.51;100.00
60583;BME280;46415;47.536;19.066;2023-06-10T03:17:37;-18677.63;;;16.54;100.00
60583;BME280;46415;47.536;19.066;2023-06-10T03:20:40;-18680.63;;;16.65;100.00
60583;BME280;46415;47.536;19.066;2023-06-10T03:23:43;-18680.22;;;16.63;100.00
60583;BME280;46415;47.536;19.066;2023-06-10T03:26:46;-18680.91;;;16.66;100.00
60583;BME280;46415;47.536;19.066;2023-06-10T03:29:51;-18682.66;;;16.72;100.00
60583;BME280;46415;47.536;19.066;2023-06-10T03:32:54;-18683.22;;;16.74;100.00
60583;BME280;46415;47.536;19.066;2023-06-10T03:35:58;-18683.34;;;16.75;100.00
60583;BME280;46415;47.536;19.066;2023-06-10T03:39:02;-18684.56;;;16.80;100.00
60583;BME280;46415;47.536;19.066;2023-06-10T03:42:06;-18686.22;;;16.86;100.00
60583;BME280;46415;47.536;19.066;2023-06-10T03:45:09;-18687.31;;;16.90;100.00
60583;BME280;46415;47.536;19.066;2023-06-10T03:48:13;-18687.84;;;16.92;100.00
60583;BME280;46415;47.536;19.066;2023-06-10T03:51:16;-18688.38;;;16.94;100.00
60583;BME280;46415;47.536;19.066;2023-06-10T03:54:19;-18687.84;;;16.92;100.00
60583;BME280;46415;47.536;19.066;2023-06-10T03:57:22;-18688.13;;;16.93;100.00
60583;BME280;46415;47.536;19.066;2023-06-10T04:00:25;-18687.03;;;16.89;100.00
60583;BME280;46415;47.536;19.066;2023-06-10T04:03:27;-18688.66;;;16.95;100.00
60583;BME280;46415;47.536;19.066;2023-06-10T04:06:31;-18687.56;;;16.91;100.00
60583;BME280;46415;47.536;19.066;2023-06-10T04:09:34;-18686.06;;;16.85;100.00
60583;BME280;46415;47.536;19.066;2023-06-10T04:12:38;-18685.94;;;16.85;100.00
60583;BME280;46415;47.536;19.066;2023-06-10T04:15:41;-18685.41;;;16.83;100.00
60583;BME280;46415;47.536;19.066;2023-06-10T04:18:44;-18687.44;;;16.90;100.00
60583;BME280;46415;47.536;19.066;2023-06-10T04:21:47;-18687.56;;;16.91;100.00
60583;BME280;46415;47.536;19.066;2023-06-10T04:24:50;-18689.22;;;16.97;100.00
60583;BME280;46415;47.536;19.066;2023-06-10T04:27:53;-18694.38;;;17.16;100.00
60583;BME280;46415;47.536;19.066;2023-06-10T04:30:55;-18699.69;;;17.36;100.00
60583;BME280;46415;47.536;19.066;2023-06-10T04:33:59;-18706.63;;;17.62;100.00
60583;BME280;46415;47.536;19.066;2023-06-10T04:37:04;-18707.03;;;17.63;100.00
60583;BME280;46415;47.536;19.066;2023-06-10T04:40:08;-18708.94;;;17.70;100.00
60583;BME280;46415;47.536;19.066;2023-06-10T04:43:11;-18704.84;;;17.55;100.00
60583;BME280;46415;47.536;19.066;2023-06-10T04:46:15;-18701.31;;;17.42;100.00
60583;BME280;46415;47.536;19.066;2023-06-10T04:49:18;-18698.19;;;17.30;100.00
60583;BME280;46415;47.536;19.066;2023-06-10T04:52:21;-18695.88;;;17.22;100.00
60583;BME280;46415;47.536;19.066;2023-06-10T04:55:24;-18698.19;;;17.30;100.00
60583;BME280;46415;47.536;19.066;2023-06-10T04:58:27;-18700.66;;;17.39;100.00
60583;BME280;46415;47.536;19.066;2023-06-10T05:01:30;-18701.19;;;17.41;100.00
60583;BME280;46415;47.536;19.066;2023-06-10T05:04:33;-18701.31;;;17.42;100.00
60583;BME280;46415;47.536;19.066;2023-06-10T05:07:37;-18701.72;;;17.43;100.00
60583;BME280;46415;47.536;19.066;2023-06-10T05:10:39;-18699.81;;;17.36;100.00
60583;BME280;46415;47.536;19.066;2023-06-10T05:13:42;-18702.41;;;17.46;100.00
60583;BME280;46415;47.536;19.066;2023-06-10T05:16:47;-18699.41;;;17.35;100.00
60583;BME280;46415;47.536;19.066;2023-06-10T05:19:50;-18700.66;;;17.39;100.00
60583;BME280;46415;47.536;19.066;2023-06-10T05:22:53;-18706.09;;;17.60;100.00
60583;BME280;46415;47.536;19.066;2023-06-10T05:25:56;-18710.03;;;17.74;100.00
60583;BME280;46415;47.536;19.066;2023-06-10T05:28:59;-18708.41;;;17.68;100.00
60583;BME280;46415;47.536;19.066;2023-06-10T05:32:02;-18706.78;;;17.62;100.00
60583;BME280;46415;47.536;19.066;2023-06-10T05:35:07;-18704.31;;;17.53;100.00
60583;BME280;46415;47.536;19.066;2023-06-10T05:38:11;-18704.84;;;17.55;100.00
60583;BME280;46415;47.536;19.066;2023-06-10T05:41:13;-18707.19;;;17.64;100.00
60583;BME280;46415;47.536;19.066;2023-06-10T05:44:16;-18716.56;;;17.99;100.00
60583;BME280;46415;47.536;19.066;2023-06-10T05:47:19;-18725.13;;;18.30;100.00
60583;BME280;46415;47.536;19.066;2023-06-10T05:50:24;-18728.81;;;18.44;100.00
60583;BME280;46415;47.536;19.066;2023-06-10T05:53:26;-18733.84;;;18.63;100.00
60583;BME280;46415;47.536;19.066;2023-06-10T05:56:29;-18737.09;;;18.75;100.00
60583;BME280;46415;47.536;19.066;2023-06-10T05:59:32;-18740.91;;;18.89;100.00
60583;BME280;46415;47.536;19.066;2023-06-10T06:02:35;-18745.94;;;19.08;100.00
60583;BME280;46415;47.536;19.066;2023-06-10T06:05:38;-18746.34;;;19.09;100.00
60583;BME280;46415;47.536;19.066;2023-06-10T06:08:41;-18740.38;;;18.87;100.00
60583;BME280;46415;47.536;19.066;2023-06-10T06:11:44;-18736.00;;;18.71;100.00
60583;BME280;46415;47.536;19.066;2023-06-10T06:14:46;-18728.00;;;18.41;100.00
60583;BME280;46415;47.536;19.066;2023-06-10T06:17:49;-18731.53;;;18.54;100.00
60583;BME280;46415;47.536;19.066;2023-06-10T06:20:55;-18733.03;;;18.60;100.00
60583;BME280;46415;47.536;19.066;2023-06-10T06:23:59;-18730.03;;;18.49;100.00
60583;BME280;46415;47.536;19.066;2023-06-10T06:27:01;-18732.63;;;18.58;100.00
60583;BME280;46415;47.536;19.066;2023-06-10T06:30:05;-18731.53;;;18.54;100.00
60583;BME280;46415;47.536;19.066;2023-06-10T06:33:08;-18731.13;;;18.53;100.00
60583;BME280;46415;47.536;19.066;2023-06-10T06:36:11;-18733.16;;;18.60;100.00
60583;BME280;46415;47.536;19.066;2023-06-10T06:39:13;-18736.00;;;18.71;100.00
60583;BME280;46415;47.536;19.066;2023-06-10T06:42:17;-18740.09;;;18.86;100.00
60583;BME280;46415;47.536;19.066;2023-06-10T06:45:21;-18742.41;;;18.95;100.00
60583;BME280;46415;47.536;19.066;2023-06-10T06:48:24;-18744.16;;;19.01;100.00
60583;BME280;46415;47.536;19.066;2023-06-10T06:51:26;-18744.56;;;19.03;100.00
60583;BME280;46415;47.536;19.066;2023-06-10T06:54:30;-18748.94;;;19.19;100.00
60583;BME280;46415;47.536;19.066;2023-06-10T06:57:32;-18758.31;;;19.54;100.00
60583;BME280;46415;47.536;19.066;2023-06-10T07:00:35;-18766.19;;;19.83;100.00
60583;BME280;46415;47.536;19.066;2023-06-10T07:03:38;-18769.16;;;19.94;100.00
60583;BME280;46415;47.536;19.066;2023-06-10T07:06:41;-18770.53;;;20.00;100.00
60583;BME280;46415;47.536;19.066;2023-06-10T07:09:44;-18771.63;;;20.04;100.00
60583;BME280;46415;47.536;19.066;2023-06-10T07:12:47;-18779.22;;;20.32;100.00
60583;BME280;46415;47.536;19.066;2023-06-10T07:15:50;-18784.38;;;20.51;100.00
60583;BME280;46415;47.536;19.066;2023-06-10T07:18:53;-18787.34;;;20.62;100.00
60583;BME280;46415;47.536;19.066;2023-06-10T07:21:56;-18794.00;;;20.87;100.00
60583;BME280;46415;47.536;19.066;2023-06-10T07:24:58;-18800.66;;;21.12;100.00
60583;BME280;46415;47.536;19.066;2023-06-10T07:28:01;-18813.81;;;21.61;100.00
60583;BME280;46415;47.536;19.066;2023-06-10T07:31:04;-18823.03;;;21.95;100.00
60583;BME280;46415;47.536;19.066;2023-06-10T07:34:07;-18829.53;;;22.20;100.00
60583;BME280;46415;47.536;19.066;2023-06-10T07:37:10;-18819.91;;;21.84;100.00
60583;BME280;46415;47.536;19.066;2023-06-10T07:40:13;-18821.53;;;21.90;100.00
60583;BME280;46415;47.536;19.066;2023-06-10T07:43:16;-18823.72;;;21.98;100.00
60583;BME280;46415;47.536;19.066;2023-06-10T07:46:19;-18826.69;;;22.09;100.00
60583;BME280;46415;47.536;19.066;2023-06-10T07:49:22;-18828.03;;;22.14;100.00
60583;BME280;46415;47.536;19.066;2023-06-10T07:52:24;-18827.37;;;22.12;100.00
60583;BME280;46415;47.536;19.066;2023-06-10T07:55:28;-18822.91;;;21.95;100.00
60583;BME280;46415;47.536;19.066;2023-06-10T07:58:31;-18821.66;;;21.90;100.00
60583;BME280;46415;47.536;19.066;2023-06-10T08:01:34;-18825.88;;;22.06;100.00
60583;BME280;46415;47.536;19.066;2023-06-10T08:04:38;-18830.47;;;22.23;100.00
60583;BME280;46415;47.536;19.066;2023-06-10T08:07:41;-18838.87;;;22.55;100.00
60583;BME280;46415;47.536;19.066;2023-06-10T08:10:44;-18847.81;;;22.88;100.00
60583;BME280;46415;47.536;19.066;2023-06-10T08:13:47;-18847.28;;;22.86;100.00
60583;BME280;46415;47.536;19.066;2023-06-10T08:16:50;-18850.66;;;22.99;98.97
60583;BME280;46415;47.536;19.066;2023-06-10T08:19:52;-18854.59;;;23.13;95.62
60583;BME280;46415;47.536;19.066;2023-06-10T08:22:55;-18852.56;;;23.06;96.97
60583;BME280;46415;47.536;19.066;2023-06-10T08:25:58;-18855.81;;;23.18;93.83
60583;BME280;46415;47.536;19.066;2023-06-10T08:29:01;-18858.25;;;23.27;92.65
60583;BME280;46415;47.536;19.066;2023-06-10T08:32:04;-18868.13;;;23.64;89.38
60583;BME280;46415;47.536;19.066;2023-06-10T08:35:07;-18871.22;;;23.76;87.19
60583;BME280;46415;47.536;19.066;2023-06-10T08:38:10;-18870.97;;;23.75;87.56
60583;BME280;46415;47.536;19.066;2023-06-10T08:41:17;-18871.22;;;23.76;86.61
60583;BME280;46415;47.536;19.066;2023-06-10T08:44:27;-18874.34;;;23.87;87.77
60583;BME280;46415;47.536;19.066;2023-06-10T08:47:33;-18871.38;;;23.76;86.57
60583;BME280;46415;47.536;19.066;2023-06-10T08:50:41;-18866.09;;;23.56;85.26
60583;BME280;46415;47.536;19.066;2023-06-10T08:54:07;-18861.91;;;23.41;87.65
60583;BME280;46415;47.536;19.066;2023-06-10T08:57:15;-18866.22;;;23.57;86.96
60583;BME280;46415;47.536;19.066;2023-06-10T09:00:18;-18872.84;;;23.82;84.58
60583;BME280;46415;47.536;19.066;2023-06-10T09:03:21;-18873.81;;;23.85;84.75
60583;BME280;46415;47.536;19.066;2023-06-10T09:06:25;-18886.78;;;24.34;85.10
60583;BME280;46415;47.536;19.066;2023-06-10T09:09:28;-18890.44;;;24.48;81.55
60583;BME280;46415;47.536;19.066;2023-06-10T09:12:36;-18890.72;;;24.49;80.17
60583;BME280;46415;47.536;19.066;2023-06-10T09:15:40;-18888.41;;;24.40;79.24
60583;BME280;46415;47.536;19.066;2023-06-10T09:18:44;-18890.31;;;24.47;81.65
60583;BME280;46415;47.536;19.066;2023-06-10T09:21:47;-18888.13;;;24.39;78.85
60583;BME280;46415;47.536;19.066;2023-06-10T09:24:50;-18883.53;;;24.22;80.46
60583;BME280;46415;47.536;19.066;2023-06-10T09:27:52;-18897.31;;;24.73;81.78
60583;BME280;46415;47.536;19.066;2023-06-10T09:31:06;-18904.22;;;24.99;81.67
60583;BME280;46415;47.536;19.066;2023-06-10T09:34:14;-18911.09;;;25.25;78.58
60583;BME280;46415;47.536;19.066;2023-06-10T09:37:22;-18906.38;;;25.07;78.98
60583;BME280;46415;47.536;19.066;2023-06-10T09:40:24;-18901.91;;;24.91;78.96
60583;BME280;46415;47.536;19.066;2023-06-10T09:43:39;-18897.59;;;24.74;79.05
60583;BME280;46415;47.536;19.066;2023-06-10T09:46:45;-18897.72;;;24.75;81.48
60583;BME280;46415;47.536;19.066;2023-06-10T09:49:49;-18886.91;;;24.34;80.98
60583;BME280;46415;47.536;19.066;2023-06-10T09:52:52;-18876.78;;;23.96;85.04
60583;BME280;46415;47.536;19.066;2023-06-10T09:55:57;-18872.59;;;23.81;87.76
60583;BME280;46415;47.536;19.066;2023-06-10T09:59:00;-18860.53;;;23.36;87.88
60583;BME280;46415;47.536;19.066;2023-06-10T10:02:03;-18850.81;;;22.99;88.74
60583;BME280;46415;47.536;19.066;2023-06-10T10:05:09;-18849.84;;;22.96;90.88
60583;BME280;46415;47.536;19.066;2023-06-10T10:08:12;-18842.00;;;22.66;90.52
60583;BME280;46415;47.536;19.066;2023-06-10T10:11:17;-18844.31;;;22.75;89.21
60583;BME280;46415;47.536;19.066;2023-06-10T10:14:21;-18844.31;;;22.75;90.99
60583;BME280;46415;47.536;19.066;2023-06-10T10:17:25;-18853.63;;;23.10;89.95
60583;BME280;46415;47.536;19.066;2023-06-10T10:20:31;-18864.06;;;23.49;86.66
60583;BME280;46415;47.536;19.066;2023-06-10T10:23:42;-18875.69;;;23.92;86.28
60583;BME280;46415;47.536;19.066;2023-06-10T10:26:48;-18876.50;;;23.95;83.35
60583;BME280;46415;47.536;19.066;2023-06-10T10:29:53;-18882.31;;;24.17;80.04
60583;BME280;46415;47.536;19.066;2023-06-10T10:32:59;-18885.16;;;24.28;81.14
60583;BME280;46415;47.536;19.066;2023-06-10T10:36:12;-18885.72;;;24.30;80.67
60583;BME280;46415;47.536;19.066;2023-06-10T10:39:15;-18888.13;;;24.39;79.22
60583;BME280;46415;47.536;19.066;2023-06-10T10:42:19;-18889.91;;;24.46;79.04
60583;BME280;46415;47.536;19.066;2023-06-10T10:45:22;-18893.41;;;24.59;74.59
60583;BME280;46415;47.536;19.066;2023-06-10T10:48:26;-18908.41;;;25.15;73.91
60583;BME280;46415;47.536;19.066;2023-06-10T10:51:34;-18928.53;;;25.90;69.76
60583;BME280;46415;47.536;19.066;2023-06-10T10:54:43;-18946.19;;;26.57;65.93
60583;BME280;46415;47.536;19.066;2023-06-10T10:58:02;-18953.47;;;26.84;62.78
60583;BME280;46415;47.536;19.066;2023-06-10T11:01:12;-18962.38;;;27.17;61.79
60583;BME280;46415;47.536;19.066;2023-06-10T11:04:17;-18966.81;;;27.34;61.03
60583;BME280;46415;47.536;19.066;2023-06-10T11:07:21;-18949.69;;;26.70;61.68
60583;BME280;46415;47.536;19.066;2023-06-10T11:10:35;-18943.38;;;26.46;64.67
60583;BME280;46415;47.536;19.066;2023-06-10T11:13:38;-18934.72;;;26.14;65.67
60583;BME280;46415;47.536;19.066;2023-06-10T11:16:42;-18924.34;;;25.75;66.73
60583;BME280;46415;47.536;19.066;2023-06-10T11:19:46;-18910.69;;;25.24;72.33
60583;BME280;46415;47.536;19.066;2023-06-10T11:22:59;-18903.28;;;24.96;72.32
60583;BME280;46415;47.536;19.066;2023-06-10T11:26:30;-18891.91;;;24.53;76.96
60583;BME280;46415;47.536;19.066;2023-06-10T11:29:37;-18890.72;;;24.49;74.79
60583;BME280;46415;47.536;19.066;2023-06-10T11:32:42;-18892.72;;;24.56;76.03
60583;BME280;46415;47.536;19.066;2023-06-10T11:35:45;-18895.16;;;24.65;75.04
60583;BME280;46415;47.536;19.066;2023-06-10T11:38:49;-18895.03;;;24.65;76.42
60583;BME280;46415;47.536;19.066;2023-06-10T11:41:53;-18893.00;;;24.57;76.15
60583;BME280;46415;47.536;19.066;2023-06-10T11:44:56;-18899.63;;;24.82;77.12
60583;BME280;46415;47.536;19.066;2023-06-10T11:47:59;-18906.25;;;25.07;75.96
60583;BME280;46415;47.536;19.066;2023-06-10T11:51:08;-18912.19;;;25.29;76.47
60583;BME280;46415;47.536;19.066;2023-06-10T11:54:11;-18921.09;;;25.62;71.78
60583;BME280;46415;47.536;19.066;2023-06-10T11:57:14;-18928.25;;;25.89;70.02
60583;BME280;46415;47.536;19.066;2023-06-10T12:00:17;-18922.44;;;25.68;71.41
60583;BME280;46415;47.536;19.066;2023-06-10T12:03:20;-18925.69;;;25.80;70.29
60583;BME280;46415;47.536;19.066;2023-06-10T12:06:25;-18932.97;;;26.07;67.25
60583;BME280;46415;47.536;19.066;2023-06-10T12:09:29;-18941.06;;;26.37;67.24
60583;BME280;46415;47.536;19.066;2023-06-10T12:12:34;-18952.94;;;26.82;66.27
60583;BME280;46415;47.536;19.066;2023-06-10T12:15:39;-18951.06;;;26.75;62.55
60583;BME280;46415;47.536;19.066;2023-06-10T12:18:43;-18951.06;;;26.75;63.52
60583;BME280;46415;47.536;19.066;2023-06-10T12:21:47;-18956.19;;;26.94;61.03
60583;BME280;46415;47.536;19.066;2023-06-10T12:25:04;-18953.75;;;26.85;58.19
60583;BME280;46415;47.536;19.066;2023-06-10T12:28:09;-18959.81;;;27.08;57.57
60583;BME280;46415;47.536;19.066;2023-06-10T12:31:12;-18968.84;;;27.42;57.12
60583;BME280;46415;47.536;19.066;2023-06-10T12:34:15;-18971.13;;;27.50;57.83
60583;BME280;46415;47.536;19.066;2023-06-10T12:37:18;-18971.13;;;27.50;57.05
60583;BME280;46415;47.536;19.066;2023-06-10T12:40:26;-18957.00;;;26.97;61.53
60583;BME280;46415;47.536;19.066;2023-06-10T12:43:30;-18959.53;;;27.07;61.49
60583;BME280;46415;47.536;19.066;2023-06-10T12:46:37;-18964.25;;;27.25;62.86
60583;BME280;46415;47.536;19.066;2023-06-10T12:49:40;-18954.28;;;26.87;64.57
60583;BME280;46415;47.536;19.066;2023-06-10T12:52:43;-18948.22;;;26.64;66.64
60583;BME280;46415;47.536;19.066;2023-06-10T12:55:45;-18946.34;;;26.57;67.46
60583;BME280;46415;47.536;19.066;2023-06-10T12:58:48;-18944.59;;;26.51;66.09
60583;BME280;46415;47.536;19.066;2023-06-10T13:01:51;-18946.47;;;26.58;66.44
60583;BME280;46415;47.536;19.066;2023-06-10T13:04:54;-18947.28;;;26.61;64.12
60583;BME280;46415;47.536;19.066;2023-06-10T13:07:58;-18944.19;;;26.49;65.12
60583;BME280;46415;47.536;19.066;2023-06-10T13:11:01;-18944.59;;;26.51;63.62
60583;BME280;46415;47.536;19.066;2023-06-10T13:14:04;-18958.75;;;27.04;63.15
60583;BME280;46415;47.536;19.066;2023-06-10T13:17:07;-18970.19;;;27.47;57.64
60583;BME280;46415;47.536;19.066;2023-06-10T13:20:10;-18974.50;;;27.63;55.98
60583;BME280;46415;47.536;19.066;2023-06-10T13:23:13;-18981.63;;;27.90;54.58
60583;BME280;46415;47.536;19.066;2023-06-10T13:26:16;-18975.84;;;27.68;55.11
60583;BME280;46415;47.536;19.066;2023-06-10T13:29:19;-18962.38;;;27.17;59.66
60583;BME280;46415;47.536;19.066;2023-06-10T13:32:22;-18949.84;;;26.70;60.93
60583;BME280;46415;47.536;19.066;2023-06-10T13:35:24;-18941.88;;;26.40;62.62
60583;BME280;46415;47.536;19.066;2023-06-10T13:38:27;-18945.38;;;26.54;62.35
60583;BME280;46415;47.536;19.066;2023-06-10T13:41:30;-18952.53;;;26.80;60.36
60583;BME280;46415;47.536;19.066;2023-06-10T13:44:33;-18969.66;;;27.45;59.17
60583;BME280;46415;47.536;19.066;2023-06-10T13:47:38;-18978.69;;;27.79;56.67
60583;BME280;46415;47.536;19.066;2023-06-10T13:50:41;-18978.53;;;27.78;56.60
60583;BME280;46415;47.536;19.066;2023-06-10T13:53:48;-18978.28;;;27.77;61.27
60583;BME280;46415;47.536;19.066;2023-06-10T13:56:50;-18977.19;;;27.73;63.48
60583;BME280;46415;47.536;19.066;2023-06-10T13:59:53;-18959.94;;;27.08;64.73
60583;BME280;46415;47.536;19.066;2023-06-10T14:02:58;-18954.16;;;26.87;66.05
60583;BME280;46415;47.536;19.066;2023-06-10T14:06:01;-18949.03;;;26.67;65.48
60583;BME280;46415;47.536;19.066;2023-06-10T14:09:04;-18937.84;;;26.25;66.86
60583;BME280;46415;47.536;19.066;2023-06-10T14:12:07;-18932.72;;;26.06;68.16
60583;BME280;46415;47.536;19.066;2023-06-10T14:15:10;-18925.41;;;25.79;69.72
60583;BME280;46415;47.536;19.066;2023-06-10T14:18:13;-18918.66;;;25.53;69.04
60583;BME280;46415;47.536;19.066;2023-06-10T14:21:16;-18907.88;;;25.13;73.07
60583;BME280;46415;47.536;19.066;2023-06-10T14:24:19;-18909.50;;;25.19;72.53
60583;BME280;46415;47.536;19.066;2023-06-10T14:27:22;-18917.31;;;25.48;70.21
60583;BME280;46415;47.536;19.066;2023-06-10T14:30:25;-18916.38;;;25.45;71.11
60583;BME280;46415;47.536;19.066;2023-06-10T14:33:28;-18912.72;;;25.31;70.59
60583;BME280;46415;47.536;19.066;2023-06-10T14:36:31;-18913.53;;;25.34;70.13
60583;BME280;46415;47.536;19.066;2023-06-10T14:39:34;-18913.53;;;25.34;72.81
60583;BME280;46415;47.536;19.066;2023-06-10T14:42:37;-18915.84;;;25.43;72.79
60583;BME280;46415;47.536;19.066;2023-06-10T14:45:40;-18916.22;;;25.44;74.42
60583;BME280;46415;47.536;19.066;2023-06-10T14:48:43;-18941.34;;;26.38;70.67
60583;BME280;46415;47.536;19.066;2023-06-10T14:51:45;-18953.63;;;26.85;70.46
60583;BME280;46415;47.536;19.066;2023-06-10T14:54:48;-18985.16;;;28.03;65.92
60583;BME280;46415;47.536;19.066;2023-06-10T14:57:51;-19033.56;;;29.85;58.27
60583;BME280;46415;47.536;19.066;2023-06-10T15:00:54;-19059.34;;;30.82;54.74
60583;BME280;46415;47.536;19.066;2023-06-10T15:03:58;-19033.03;;;29.83;57.50
60583;BME280;46415;47.536;19.066;2023-06-10T15:07:01;-18997.13;;;28.48;63.42
60583;BME280;46415;47.536;19.066;2023-06-10T15:10:04;-19009.25;;;28.94;59.81
60583;BME280;46415;47.536;19.066;2023-06-10T15:13:08;-19032.34;;;29.81;57.18
60583;BME280;46415;47.536;19.066;2023-06-10T15:16:10;-19054.00;;;30.62;51.83
60583;BME280;46415;47.536;19.066;2023-06-10T15:19:13;-19052.91;;;30.58;53.64
60583;BME280;46415;47.536;19.066;2023-06-10T15:22:16;-19100.53;;;32.38;49.94
60583;BME280;46415;47.536;19.066;2023-06-10T15:25:19;-19082.44;;;31.70;50.64
60583;BME280;46415;47.536;19.066;2023-06-10T15:28:32;-19024.56;;;29.51;57.29
60583;BME280;46415;47.536;19.066;2023-06-10T15:31:35;-18956.03;;;26.94;70.17
60583;BME280;46415;47.536;19.066;2023-06-10T15:34:38;-18913.25;;;25.33;78.97
60583;BME280;46415;47.536;19.066;2023-06-10T15:37:41;-18885.72;;;24.30;85.44
60583;BME280;46415;47.536;19.066;2023-06-10T15:40:44;-18873.81;;;23.85;88.36
60583;BME280;46415;47.536;19.066;2023-06-10T15:43:47;-18863.25;;;23.46;90.60